createdAt,value
2018-07-03T00:00:47.749Z,11.02
2018-07-03T00:01:47.654Z,10.95
2018-07-03T00:02:47.651Z,10.73
2018-07-03T00:03:47.473Z,10.62
2018-07-03T00:04:47.410Z,10.42
2018-07-03T00:05:47.291Z,10.36
2018-07-03T00:06:47.191Z,10.11
2018-07-03T00:07:47.097Z,10.06
2018-07-03T00:08:47.010Z,10.06
2018-07-03T00:09:47.038Z,9.99
2018-07-03T00:10:46.822Z,9.93
2018-07-03T00:11:46.729Z,9.81
2018-07-03T00:12:46.634Z,9.65
2018-07-03T00:13:46.540Z,9.41
2018-07-03T00:14:46.477Z,9.19
2018-07-03T00:15:46.354Z,9.04
2018-07-03T00:16:46.352Z,8.91
2018-07-03T00:17:46.171Z,8.85
2018-07-03T00:18:46.076Z,8.68
2018-07-03T00:19:46.010Z,8.65
2018-07-03T00:20:45.891Z,8.65
2018-07-03T00:21:45.794Z,8.73
2018-07-03T00:22:45.700Z,8.68
2018-07-03T00:23:45.701Z,8.70
2018-07-03T00:24:45.548Z,8.68
2018-07-03T00:25:45.424Z,8.64
2018-07-03T00:26:45.327Z,8.67
2018-07-03T00:27:45.236Z,8.64
2018-07-03T00:28:45.145Z,8.67
2018-07-03T00:29:45.087Z,8.68
2018-07-03T00:30:45.047Z,8.65
2018-07-03T00:31:44.864Z,8.78
2018-07-03T00:32:44.769Z,8.88
2018-07-03T00:33:44.673Z,8.89
2018-07-03T00:34:44.611Z,8.94
2018-07-03T00:35:44.487Z,9.04
2018-07-03T00:36:44.396Z,9.03
2018-07-03T00:37:44.390Z,9.10
2018-07-03T00:38:44.210Z,9.10
2018-07-03T00:39:44.145Z,9.10
2018-07-03T00:40:44.020Z,9.03
2018-07-03T00:41:43.928Z,8.93
2018-07-03T00:42:43.832Z,8.94
2018-07-03T00:43:43.737Z,8.94
2018-07-03T00:44:43.768Z,9.04
2018-07-03T00:45:43.549Z,9.22
2018-07-03T00:46:43.461Z,9.22
2018-07-03T00:47:43.365Z,9.26
2018-07-03T00:48:43.270Z,9.26
2018-07-03T00:49:43.208Z,9.30
2018-07-03T00:50:43.204Z,9.26
2018-07-03T00:51:42.990Z,9.20
2018-07-03T00:52:42.900Z,9.22
2018-07-03T00:53:42.802Z,9.15
2018-07-03T00:54:42.738Z,9.15
2018-07-03T00:55:42.616Z,9.06
2018-07-03T00:56:42.526Z,9.04
2018-07-03T00:57:42.432Z,8.96
2018-07-03T00:58:42.426Z,8.89
2018-07-03T00:59:42.273Z,8.88
2018-07-03T01:00:42.147Z,8.97
2018-07-03T01:01:42.052Z,8.94
2018-07-03T01:02:41.960Z,9.04
2018-07-03T01:03:41.865Z,9.04
2018-07-03T01:04:41.806Z,9.12
2018-07-03T01:05:41.679Z,9.13
2018-07-03T01:06:41.584Z,9.15
2018-07-03T01:07:41.490Z,9.06
2018-07-03T01:08:41.396Z,9.06
2018-07-03T01:09:41.350Z,9.17
2018-07-03T01:10:41.212Z,9.19
2018-07-03T01:11:41.117Z,9.17
2018-07-03T01:12:41.024Z,9.20
2018-07-03T01:13:40.932Z,9.19
2018-07-03T01:14:40.839Z,9.00
2018-07-03T01:15:40.772Z,9.08
2018-07-03T01:16:40.649Z,9.03
2018-07-03T01:17:40.552Z,9.04
2018-07-03T01:18:40.462Z,9.08
2018-07-03T01:19:40.397Z,9.03
2018-07-03T01:20:40.269Z,8.96
2018-07-03T01:21:40.177Z,8.98
2018-07-03T01:22:40.084Z,9.01
2018-07-03T01:23:39.991Z,9.15
2018-07-03T01:24:39.897Z,9.20
2018-07-03T01:25:39.833Z,9.42
2018-07-03T01:26:39.708Z,9.52
2018-07-03T01:27:39.614Z,9.50
2018-07-03T01:28:39.523Z,9.59
2018-07-03T01:29:39.428Z,9.68
2018-07-03T01:30:39.366Z,9.75
2018-07-03T01:31:39.239Z,9.85
2018-07-03T01:32:39.147Z,9.88
2018-07-03T01:33:39.055Z,9.85
2018-07-03T01:34:38.959Z,9.95
2018-07-03T01:35:38.894Z,9.99
2018-07-03T01:36:38.771Z,10.09
2018-07-03T01:37:38.677Z,10.06
2018-07-03T01:38:38.585Z,10.17
2018-07-03T01:39:38.486Z,10.26
2018-07-03T01:40:38.424Z,10.35
2018-07-03T01:41:38.302Z,10.22
2018-07-03T01:42:38.210Z,10.24
2018-07-03T01:43:38.114Z,10.29
2018-07-03T01:44:38.020Z,10.32
2018-07-03T01:45:37.960Z,10.38
2018-07-03T01:46:37.834Z,10.31
2018-07-03T01:47:37.741Z,10.52
2018-07-03T01:48:37.645Z,10.43
2018-07-03T01:49:37.570Z,10.55
2018-07-03T01:50:37.491Z,10.60
2018-07-03T01:51:37.364Z,10.62
2018-07-03T01:52:37.273Z,10.62
2018-07-03T01:53:37.178Z,10.63
2018-07-03T01:54:37.086Z,10.60
2018-07-03T01:55:37.026Z,10.66
2018-07-03T01:56:36.900Z,10.62
2018-07-03T01:57:36.804Z,10.44
2018-07-03T01:58:36.713Z,10.38
2018-07-03T01:59:36.620Z,10.18
2018-07-03T02:00:36.554Z,10.20
2018-07-03T02:01:36.430Z,10.28
2018-07-03T02:02:36.638Z,10.25
2018-07-03T02:03:36.243Z,10.20
2018-07-03T02:04:36.150Z,10.38
2018-07-03T02:05:36.088Z,10.44
2018-07-03T02:06:35.964Z,10.24
2018-07-03T02:07:35.868Z,10.09
2018-07-03T02:08:35.785Z,10.07
2018-07-03T02:09:35.685Z,10.01
2018-07-03T02:10:35.630Z,9.99
2018-07-03T02:11:35.498Z,9.95
2018-07-03T02:12:35.404Z,10.01
2018-07-03T02:13:35.310Z,10.09
2018-07-03T02:14:35.215Z,9.91
2018-07-03T02:15:35.157Z,9.78
2018-07-03T02:16:35.031Z,9.81
2018-07-03T02:17:34.936Z,9.70
2018-07-03T02:18:34.840Z,9.78
2018-07-03T02:19:34.748Z,9.81
2018-07-03T02:20:34.694Z,9.75
2018-07-03T02:21:34.559Z,9.63
2018-07-03T02:22:34.467Z,9.60
2018-07-03T02:23:34.373Z,9.48
2018-07-03T02:24:34.281Z,9.48
2018-07-03T02:25:34.220Z,9.48
2018-07-03T02:26:34.095Z,9.67
2018-07-03T02:27:34.000Z,9.59
2018-07-03T02:28:33.907Z,9.71
2018-07-03T02:29:33.817Z,9.60
2018-07-03T02:30:33.751Z,9.44
2018-07-03T02:31:33.631Z,9.37
2018-07-03T02:32:33.566Z,9.40
2018-07-03T02:33:33.440Z,9.31
2018-07-03T02:34:33.347Z,9.50
2018-07-03T02:35:33.254Z,9.26
2018-07-03T02:36:33.160Z,9.38
2018-07-03T02:37:33.096Z,9.44
2018-07-03T02:38:32.976Z,9.53
2018-07-03T02:39:32.894Z,9.45
2018-07-03T02:40:32.784Z,9.52
2018-07-03T02:41:32.693Z,9.34
2018-07-03T02:42:32.630Z,9.42
2018-07-03T02:43:32.597Z,9.48
2018-07-03T02:44:32.409Z,9.35
2018-07-03T02:45:32.316Z,9.37
2018-07-03T02:46:32.220Z,9.17
2018-07-03T02:47:32.132Z,9.13
2018-07-03T02:48:32.067Z,9.03
2018-07-03T02:49:31.954Z,8.98
2018-07-03T02:50:31.936Z,9.01
2018-07-03T02:51:31.754Z,9.12
2018-07-03T02:52:31.662Z,9.03
2018-07-03T02:53:31.599Z,9.16
2018-07-03T02:54:31.473Z,9.24
2018-07-03T02:55:31.377Z,9.22
2018-07-03T02:56:31.284Z,9.23
2018-07-03T02:57:31.280Z,9.19
2018-07-03T02:58:31.132Z,9.32
2018-07-03T02:59:31.006Z,9.44
2018-07-03T03:00:30.911Z,9.41
2018-07-03T03:01:30.815Z,9.37
2018-07-03T03:02:30.722Z,9.38
2018-07-03T03:03:30.661Z,9.37
2018-07-03T03:04:30.624Z,9.27
2018-07-03T03:05:30.440Z,9.24
2018-07-03T03:06:30.343Z,9.24
2018-07-03T03:07:30.254Z,9.23
2018-07-03T03:08:30.192Z,9.27
2018-07-03T03:09:30.083Z,9.31
2018-07-03T03:10:29.972Z,9.37
2018-07-03T03:11:29.972Z,9.49
2018-07-03T03:12:29.806Z,9.62
2018-07-03T03:13:29.725Z,9.74
2018-07-03T03:14:29.593Z,9.78
2018-07-03T03:15:29.502Z,10.04
2018-07-03T03:16:29.409Z,10.06
2018-07-03T03:17:29.312Z,10.22
2018-07-03T03:18:29.344Z,10.29
2018-07-03T03:19:29.130Z,10.31
2018-07-03T03:20:29.035Z,10.11
2018-07-03T03:21:28.941Z,9.78
2018-07-03T03:22:28.873Z,9.71
2018-07-03T03:23:28.787Z,9.65
2018-07-03T03:24:28.657Z,9.59
2018-07-03T03:25:28.653Z,9.52
2018-07-03T03:26:28.470Z,9.63
2018-07-03T03:27:28.376Z,9.59
2018-07-03T03:28:28.315Z,9.60
2018-07-03T03:29:28.190Z,9.52
2018-07-03T03:30:28.096Z,9.52
2018-07-03T03:31:28.003Z,9.45
2018-07-03T03:32:28.003Z,9.58
2018-07-03T03:33:27.849Z,9.62
2018-07-03T03:34:27.722Z,9.77
2018-07-03T03:35:27.628Z,9.99
2018-07-03T03:36:27.539Z,9.99
2018-07-03T03:37:27.442Z,10.09
2018-07-03T03:38:27.379Z,10.13
2018-07-03T03:39:27.347Z,10.16
2018-07-03T03:40:27.166Z,10.20
2018-07-03T03:41:27.066Z,10.14
2018-07-03T03:42:26.969Z,9.89
2018-07-03T03:43:26.910Z,9.85
2018-07-03T03:44:26.784Z,9.68
2018-07-03T03:45:26.689Z,9.83
2018-07-03T03:46:26.686Z,9.78
2018-07-03T03:47:26.508Z,9.98
2018-07-03T03:48:26.443Z,9.80
2018-07-03T03:49:26.319Z,9.83
2018-07-03T03:50:26.221Z,9.68
2018-07-03T03:51:26.131Z,9.63
2018-07-03T03:52:26.037Z,9.56
2018-07-03T03:53:26.064Z,9.40
2018-07-03T03:54:25.847Z,9.32
2018-07-03T03:55:25.758Z,9.32
2018-07-03T03:56:25.666Z,9.27
2018-07-03T03:57:25.569Z,9.31
2018-07-03T03:58:25.507Z,9.40
2018-07-03T03:59:25.382Z,9.41
2018-07-03T04:00:25.379Z,9.44
2018-07-03T04:01:25.197Z,9.48
2018-07-03T04:02:25.098Z,9.44
2018-07-03T04:03:25.043Z,9.37
2018-07-03T04:04:24.932Z,9.31
2018-07-03T04:05:24.820Z,9.35
2018-07-03T04:06:24.728Z,9.41
2018-07-03T04:07:24.637Z,9.49
2018-07-03T04:08:24.577Z,9.59
2018-07-03T04:09:24.444Z,9.78
2018-07-03T04:10:24.352Z,9.81
2018-07-03T04:11:24.258Z,9.93
2018-07-03T04:12:24.163Z,9.99
2018-07-03T04:13:24.109Z,10.11
2018-07-03T04:14:23.976Z,10.25
2018-07-03T04:15:23.884Z,10.39
2018-07-03T04:16:23.794Z,10.54
2018-07-03T04:17:23.698Z,10.60
2018-07-03T04:18:23.604Z,10.60
2018-07-03T04:19:23.541Z,10.68
2018-07-03T04:20:23.418Z,10.63
2018-07-03T04:21:23.324Z,10.63
2018-07-03T04:22:23.232Z,10.65
2018-07-03T04:23:23.140Z,10.65
2018-07-03T04:24:23.076Z,10.75
2018-07-03T04:25:22.953Z,10.76
2018-07-03T04:26:22.858Z,10.76
2018-07-03T04:27:22.765Z,10.88
2018-07-03T04:28:22.674Z,11.01
2018-07-03T04:29:22.612Z,11.19
2018-07-03T04:30:22.485Z,11.27
2018-07-03T04:31:22.393Z,11.42
2018-07-03T04:32:22.302Z,11.57
2018-07-03T04:33:22.209Z,11.59
2018-07-03T04:34:22.147Z,11.79
2018-07-03T04:35:22.020Z,11.82
2018-07-03T04:36:21.931Z,11.94
2018-07-03T04:37:21.836Z,12.01
2018-07-03T04:38:21.743Z,12.11
2018-07-03T04:39:21.680Z,12.15
2018-07-03T04:40:21.554Z,12.16
2018-07-03T04:41:21.518Z,12.16
2018-07-03T04:42:21.374Z,12.13
2018-07-03T04:43:21.279Z,12.26
2018-07-03T04:44:21.220Z,12.23
2018-07-03T04:45:21.097Z,12.36
2018-07-03T04:46:21.003Z,12.25
2018-07-03T04:47:20.912Z,12.33
2018-07-03T04:48:20.820Z,12.37
2018-07-03T04:49:20.764Z,12.37
2018-07-03T04:50:20.636Z,12.36
2018-07-03T04:51:20.544Z,12.48
2018-07-03T04:52:20.452Z,12.41
2018-07-03T04:53:20.418Z,12.51
2018-07-03T04:54:20.299Z,12.56
2018-07-03T04:55:20.175Z,12.66
2018-07-03T04:56:20.082Z,12.70
2018-07-03T04:57:19.995Z,12.69
2018-07-03T04:58:19.901Z,12.88
2018-07-03T04:59:19.843Z,12.87
2018-07-03T05:00:19.719Z,12.91
2018-07-03T05:01:19.629Z,12.89
2018-07-03T05:02:19.547Z,12.99
2018-07-03T05:03:19.441Z,12.99
2018-07-03T05:04:19.382Z,13.12
2018-07-03T05:05:19.258Z,13.17
2018-07-03T05:06:19.167Z,13.27
2018-07-03T05:07:19.074Z,13.24
2018-07-03T05:08:18.985Z,13.25
2018-07-03T05:09:18.925Z,13.22
2018-07-03T05:10:18.799Z,13.29
2018-07-03T05:11:18.708Z,13.38
2018-07-03T05:12:18.620Z,13.47
2018-07-03T05:13:18.532Z,13.47
2018-07-03T05:14:18.473Z,13.57
2018-07-03T05:15:18.346Z,13.68
2018-07-03T05:16:18.257Z,13.68
2018-07-03T05:17:18.166Z,13.66
2018-07-03T05:18:18.072Z,13.73
2018-07-03T05:19:18.014Z,13.81
2018-07-03T05:20:17.893Z,13.86
2018-07-03T05:21:17.803Z,13.86
2018-07-03T05:22:17.712Z,13.84
2018-07-03T05:23:17.725Z,13.87
2018-07-03T05:24:17.563Z,13.90
2018-07-03T05:25:17.437Z,13.87
2018-07-03T05:26:17.349Z,13.99
2018-07-03T05:27:17.254Z,13.90
2018-07-03T05:28:17.166Z,14.01
2018-07-03T05:29:17.108Z,13.90
2018-07-03T05:30:17.075Z,13.93
2018-07-03T05:31:16.894Z,13.96
2018-07-03T05:32:16.806Z,14.09
2018-07-03T05:33:16.712Z,14.09
2018-07-03T05:34:16.675Z,14.21
2018-07-03T05:35:16.534Z,14.24
2018-07-03T05:36:16.443Z,14.34
2018-07-03T05:37:16.486Z,14.34
2018-07-03T05:38:16.263Z,14.48
2018-07-03T05:39:16.206Z,14.49
2018-07-03T05:40:16.086Z,14.56
2018-07-03T05:41:15.990Z,14.71
2018-07-03T05:42:15.900Z,14.75
2018-07-03T05:43:15.811Z,14.94
2018-07-03T05:44:15.828Z,15.13
2018-07-03T05:45:15.632Z,15.22
2018-07-03T05:46:15.540Z,15.33
2018-07-03T05:47:15.452Z,15.37
2018-07-03T05:48:15.362Z,15.41
2018-07-03T05:49:15.273Z,15.51
2018-07-03T05:50:15.216Z,15.48
2018-07-03T05:51:15.185Z,15.60
2018-07-03T05:52:15.006Z,15.67
2018-07-03T05:53:14.913Z,15.88
2018-07-03T05:54:14.825Z,15.93
2018-07-03T05:55:14.764Z,16.04
2018-07-03T05:56:14.654Z,16.33
2018-07-03T05:57:14.557Z,16.47
2018-07-03T05:58:14.623Z,16.59
2018-07-03T05:59:14.381Z,16.75
2018-07-03T06:00:14.321Z,16.84
2018-07-03T06:01:14.201Z,16.88
2018-07-03T06:02:14.115Z,17.02
2018-07-03T06:03:14.023Z,17.02
2018-07-03T06:04:13.936Z,17.06
2018-07-03T06:05:13.949Z,17.17
2018-07-03T06:06:13.758Z,17.15
2018-07-03T06:07:13.666Z,17.22
2018-07-03T06:08:13.581Z,17.22
2018-07-03T06:09:13.549Z,17.25
2018-07-03T06:10:13.435Z,17.30
2018-07-03T06:11:13.315Z,17.36
2018-07-03T06:12:13.356Z,17.43
2018-07-03T06:13:13.136Z,17.43
2018-07-03T06:14:13.051Z,17.40
2018-07-03T06:15:12.993Z,17.40
2018-07-03T06:16:12.869Z,17.47
2018-07-03T06:17:12.782Z,17.51
2018-07-03T06:18:12.694Z,17.51
2018-07-03T06:19:12.604Z,17.62
2018-07-03T06:20:12.550Z,17.68
2018-07-03T06:21:12.568Z,17.65
2018-07-03T06:22:12.558Z,17.66
2018-07-03T06:23:12.253Z,17.73
2018-07-03T06:24:12.164Z,17.70
2018-07-03T06:25:12.105Z,17.77
2018-07-03T06:26:11.986Z,17.71
2018-07-03T06:27:11.902Z,17.81
2018-07-03T06:28:11.808Z,17.80
2018-07-03T06:29:11.723Z,17.77
2018-07-03T06:30:11.664Z,17.81
2018-07-03T06:31:11.544Z,17.89
2018-07-03T06:32:11.456Z,17.81
2018-07-03T06:33:11.366Z,17.86
2018-07-03T06:34:11.278Z,17.83
2018-07-03T06:35:11.222Z,17.89
2018-07-03T06:36:11.103Z,18.07
2018-07-03T06:37:11.024Z,18.04
2018-07-03T06:38:10.925Z,18.17
2018-07-03T06:39:10.838Z,18.26
2018-07-03T06:40:10.784Z,18.39
2018-07-03T06:41:10.662Z,18.64
2018-07-03T06:42:10.571Z,18.89
2018-07-03T06:43:10.485Z,19.23
2018-07-03T06:44:10.399Z,19.34
2018-07-03T06:45:10.341Z,19.61
2018-07-03T06:46:10.224Z,19.94
2018-07-03T06:47:10.136Z,20.08
2018-07-03T06:48:10.048Z,20.35
2018-07-03T06:49:09.959Z,20.71
2018-07-03T06:50:09.902Z,20.71
2018-07-03T06:51:09.787Z,20.58
2018-07-03T06:52:09.702Z,21.00
2018-07-03T06:53:09.615Z,21.26
2018-07-03T06:54:09.532Z,21.15
2018-07-03T06:55:09.476Z,21.30
2018-07-03T06:56:09.360Z,21.12
2018-07-03T06:57:09.272Z,21.36
2018-07-03T06:58:09.188Z,21.28
2018-07-03T06:59:09.103Z,21.11
2018-07-03T07:00:09.051Z,21.11
2018-07-03T07:01:08.932Z,21.49
2018-07-03T07:02:08.848Z,21.71
2018-07-03T07:03:08.762Z,21.99
2018-07-03T07:04:08.680Z,22.31
2018-07-03T07:05:08.628Z,22.51
2018-07-03T07:06:08.515Z,22.78
2018-07-03T07:07:08.431Z,22.12
2018-07-03T07:08:08.352Z,21.75
2018-07-03T07:09:08.367Z,21.67
2018-07-03T07:10:08.213Z,21.81
2018-07-03T07:11:08.098Z,21.91
2018-07-03T07:12:08.024Z,22.21
2018-07-03T07:13:07.940Z,22.42
2018-07-03T07:14:07.855Z,22.99
2018-07-03T07:15:07.856Z,23.09
2018-07-03T07:16:07.690Z,23.35
2018-07-03T07:17:07.609Z,23.67
2018-07-03T07:18:07.529Z,23.62
2018-07-03T07:19:07.447Z,23.54
2018-07-03T07:20:07.368Z,23.71
2018-07-03T07:21:07.319Z,23.89
2018-07-03T07:22:07.319Z,23.92
2018-07-03T07:23:07.159Z,23.63
2018-07-03T07:24:07.047Z,23.60
2018-07-03T07:25:06.967Z,23.71
2018-07-03T07:26:06.914Z,23.67
2018-07-03T07:27:06.809Z,23.84
2018-07-03T07:28:06.726Z,24.02
2018-07-03T07:29:06.735Z,24.04
2018-07-03T07:30:06.564Z,24.16
2018-07-03T07:31:06.518Z,24.49
2018-07-03T07:32:06.411Z,24.92
2018-07-03T07:33:06.331Z,25.02
2018-07-03T07:34:06.245Z,25.11
2018-07-03T07:35:06.172Z,25.35
2018-07-03T07:36:06.209Z,25.30
2018-07-03T07:37:06.008Z,25.23
2018-07-03T07:38:05.933Z,25.41
2018-07-03T07:39:05.853Z,25.66
2018-07-03T07:40:05.775Z,25.57
2018-07-03T07:41:05.729Z,25.67
2018-07-03T07:42:05.616Z,25.44
2018-07-03T07:43:05.622Z,25.36
2018-07-03T07:44:05.458Z,25.30
2018-07-03T07:45:05.383Z,24.92
2018-07-03T07:46:05.332Z,24.77
2018-07-03T07:47:05.227Z,24.45
2018-07-03T07:48:05.147Z,24.79
2018-07-03T07:49:05.066Z,25.01
2018-07-03T07:50:05.080Z,25.08
2018-07-03T07:51:04.943Z,25.38
2018-07-03T07:52:04.834Z,25.35
2018-07-03T07:53:04.756Z,25.53
2018-07-03T07:54:04.680Z,25.64
2018-07-03T07:55:04.599Z,25.45
2018-07-03T07:56:04.556Z,25.61
2018-07-03T07:57:04.548Z,25.61
2018-07-03T07:58:04.361Z,25.57
2018-07-03T07:59:04.287Z,25.29
2018-07-03T08:00:04.209Z,25.49
2018-07-03T08:01:04.160Z,25.51
2018-07-03T08:02:04.054Z,25.42
2018-07-03T08:03:03.972Z,25.49
2018-07-03T08:04:03.998Z,25.27
2018-07-03T08:05:03.816Z,24.99
2018-07-03T08:06:03.774Z,25.07
2018-07-03T08:07:03.663Z,25.08
2018-07-03T08:08:03.587Z,25.22
2018-07-03T08:09:03.521Z,25.51
2018-07-03T08:10:03.433Z,25.67
2018-07-03T08:11:03.484Z,25.79
2018-07-03T08:12:03.275Z,25.96
2018-07-03T08:13:03.197Z,26.04
2018-07-03T08:14:03.119Z,26.19
2018-07-03T08:15:03.043Z,26.31
2018-07-03T08:16:02.995Z,26.27
2018-07-03T08:17:02.890Z,26.08
2018-07-03T08:18:02.906Z,26.08
2018-07-03T08:19:02.777Z,25.89
2018-07-03T08:20:02.652Z,25.66
2018-07-03T08:21:02.603Z,25.82
2018-07-03T08:22:02.494Z,25.72
2018-07-03T08:23:02.418Z,25.79
2018-07-03T08:24:02.344Z,26.09
2018-07-03T08:25:02.266Z,26.11
2018-07-03T08:26:02.221Z,26.23
2018-07-03T08:27:02.111Z,26.24
2018-07-03T08:28:02.032Z,26.24
2018-07-03T08:29:01.953Z,26.31
2018-07-03T08:30:01.884Z,26.65
2018-07-03T08:31:01.826Z,26.19
2018-07-03T08:32:01.722Z,26.03
2018-07-03T08:33:01.639Z,25.71
2018-07-03T08:34:01.575Z,25.60
2018-07-03T08:35:01.489Z,25.83
2018-07-03T08:36:01.438Z,25.98
2018-07-03T08:37:01.330Z,26.16
2018-07-03T08:38:01.254Z,26.51
2018-07-03T08:39:01.175Z,26.38
2018-07-03T08:40:01.098Z,26.28
2018-07-03T08:41:01.048Z,26.23
2018-07-03T08:42:00.937Z,25.94
2018-07-03T08:43:00.862Z,26.04
2018-07-03T08:44:00.786Z,26.21
2018-07-03T08:45:00.708Z,26.38
2018-07-03T08:46:00.661Z,26.39
2018-07-03T08:47:00.552Z,26.51
2018-07-03T08:48:00.471Z,26.32
2018-07-03T08:49:00.396Z,26.60
2018-07-03T08:50:00.317Z,26.57
2018-07-03T08:51:00.241Z,26.72
2018-07-03T08:52:00.211Z,27.09
2018-07-03T08:53:00.089Z,26.64
2018-07-03T08:54:00.010Z,26.03
2018-07-03T08:54:59.971Z,26.04
2018-07-03T08:55:59.857Z,26.03
2018-07-03T08:56:59.802Z,26.04
2018-07-03T08:57:59.698Z,26.35
2018-07-03T08:58:59.618Z,26.61
2018-07-03T08:59:59.538Z,27.01
2018-07-03T09:00:59.466Z,27.20
2018-07-03T09:01:59.420Z,27.20
2018-07-03T09:02:59.308Z,27.09
2018-07-03T09:03:59.230Z,27.15
2018-07-03T09:04:59.153Z,27.08
2018-07-03T09:05:59.076Z,27.02
2018-07-03T09:06:59.028Z,27.18
2018-07-03T09:07:58.919Z,27.23
2018-07-03T09:08:58.841Z,27.06
2018-07-03T09:09:58.761Z,27.03
2018-07-03T09:10:58.685Z,26.94
2018-07-03T09:11:58.637Z,27.21
2018-07-03T09:12:58.526Z,27.21
2018-07-03T09:13:58.451Z,27.18
2018-07-03T09:14:58.375Z,27.02
2018-07-03T09:15:58.295Z,27.08
2018-07-03T09:16:58.251Z,26.69
2018-07-03T09:17:58.188Z,27.01
2018-07-03T09:18:58.067Z,26.66
2018-07-03T09:19:57.987Z,27.01
2018-07-03T09:20:57.920Z,27.27
2018-07-03T09:21:57.864Z,27.39
2018-07-03T09:22:57.752Z,27.52
2018-07-03T09:23:57.680Z,27.28
2018-07-03T09:24:57.605Z,26.98
2018-07-03T09:25:57.522Z,27.03
2018-07-03T09:26:57.566Z,27.18
2018-07-03T09:27:57.365Z,27.30
2018-07-03T09:28:57.294Z,27.40
2018-07-03T09:29:57.211Z,26.98
2018-07-03T09:30:57.132Z,26.73
2018-07-03T09:31:57.087Z,26.93
2018-07-03T09:32:56.977Z,27.08
2018-07-03T09:33:57.008Z,27.20
2018-07-03T09:34:56.825Z,27.16
2018-07-03T09:35:56.746Z,27.21
2018-07-03T09:36:56.701Z,27.43
2018-07-03T09:37:56.594Z,27.05
2018-07-03T09:38:56.520Z,27.15
2018-07-03T09:39:56.436Z,26.75
2018-07-03T09:40:56.449Z,26.69
2018-07-03T09:41:56.312Z,26.87
2018-07-03T09:42:56.205Z,27.01
2018-07-03T09:43:56.130Z,27.40
2018-07-03T09:44:56.049Z,27.45
2018-07-03T09:45:55.984Z,27.58
2018-07-03T09:46:55.929Z,27.74
2018-07-03T09:47:55.910Z,27.63
2018-07-03T09:48:55.748Z,27.53
2018-07-03T09:49:55.661Z,27.20
2018-07-03T09:50:55.583Z,27.11
2018-07-03T09:51:55.540Z,26.97
2018-07-03T09:52:55.430Z,26.90
2018-07-03T09:53:55.350Z,27.02
2018-07-03T09:54:55.413Z,27.53
2018-07-03T09:55:55.198Z,27.53
2018-07-03T09:56:55.151Z,27.81
2018-07-03T09:57:55.041Z,27.59
2018-07-03T09:58:54.963Z,27.78
2018-07-03T09:59:54.886Z,27.76
2018-07-03T10:00:54.812Z,27.98
2018-07-03T10:01:54.852Z,27.71
2018-07-03T10:02:54.662Z,27.86
2018-07-03T10:03:54.579Z,28.05
2018-07-03T10:04:54.503Z,27.99
2018-07-03T10:05:54.425Z,27.66
2018-07-03T10:06:54.381Z,27.63
2018-07-03T10:07:54.270Z,27.35
2018-07-03T10:08:54.289Z,27.46
2018-07-03T10:09:54.130Z,27.53
2018-07-03T10:10:54.040Z,27.55
2018-07-03T10:11:54.001Z,27.40
2018-07-03T10:12:53.889Z,27.61
2018-07-03T10:13:53.813Z,27.87
2018-07-03T10:14:53.729Z,27.86
2018-07-03T10:15:53.748Z,27.77
2018-07-03T10:16:53.606Z,27.76
2018-07-03T10:17:53.497Z,28.05
2018-07-03T10:18:53.488Z,27.84
2018-07-03T10:19:53.349Z,26.64
2018-07-03T10:20:53.268Z,24.82
2018-07-03T10:21:53.222Z,25.11
2018-07-03T10:22:53.217Z,25.71
2018-07-03T10:23:53.037Z,26.27
2018-07-03T10:24:52.957Z,26.69
2018-07-03T10:25:52.883Z,26.83
2018-07-03T10:26:52.809Z,26.68
2018-07-03T10:27:52.760Z,27.01
2018-07-03T10:28:52.649Z,27.11
2018-07-03T10:29:52.665Z,27.50
2018-07-03T10:30:52.493Z,27.78
2018-07-03T10:31:52.423Z,28.14
2018-07-03T10:32:52.383Z,28.50
2018-07-03T10:33:52.264Z,28.15
2018-07-03T10:34:52.202Z,28.28
2018-07-03T10:35:52.108Z,28.08
2018-07-03T10:36:52.033Z,28.25
2018-07-03T10:37:51.987Z,28.45
2018-07-03T10:38:51.877Z,28.36
2018-07-03T10:39:51.799Z,28.48
2018-07-03T10:40:51.727Z,28.32
2018-07-03T10:41:51.645Z,28.52
2018-07-03T10:42:51.600Z,29.07
2018-07-03T10:43:51.492Z,28.83
2018-07-03T10:44:51.413Z,28.55
2018-07-03T10:45:51.339Z,28.38
2018-07-03T10:46:51.259Z,28.39
2018-07-03T10:47:51.217Z,27.81
2018-07-03T10:48:51.125Z,27.08
2018-07-03T10:49:51.032Z,27.08
2018-07-03T10:50:50.952Z,27.35
2018-07-03T10:51:50.877Z,27.59
2018-07-03T10:52:50.830Z,28.03
2018-07-03T10:53:50.721Z,27.90
2018-07-03T10:54:50.643Z,28.13
2018-07-03T10:55:50.569Z,28.28
2018-07-03T10:56:50.492Z,28.40
2018-07-03T10:57:50.445Z,28.50
2018-07-03T10:58:50.340Z,28.55
2018-07-03T10:59:50.261Z,29.00
2018-07-03T11:00:50.181Z,29.23
2018-07-03T11:01:50.104Z,29.36
2018-07-03T11:02:50.059Z,29.10
2018-07-03T11:03:49.953Z,29.02
2018-07-03T11:04:49.876Z,29.03
2018-07-03T11:05:49.798Z,28.67
2018-07-03T11:06:49.726Z,28.40
2018-07-03T11:07:49.678Z,28.48
2018-07-03T11:08:49.566Z,28.69
2018-07-03T11:09:49.500Z,28.77
2018-07-03T11:10:49.417Z,28.52
2018-07-03T11:11:49.346Z,28.54
2018-07-03T11:12:49.296Z,28.73
2018-07-03T11:13:49.261Z,29.05
2018-07-03T11:14:49.109Z,28.72
2018-07-03T11:15:49.035Z,28.51
2018-07-03T11:16:48.958Z,28.51
2018-07-03T11:17:48.910Z,28.60
2018-07-03T11:18:48.801Z,28.58
2018-07-03T11:19:48.790Z,28.39
2018-07-03T11:20:48.651Z,28.57
2018-07-03T11:21:48.570Z,28.61
2018-07-03T11:22:48.533Z,28.72
2018-07-03T11:23:48.417Z,28.88
2018-07-03T11:24:48.341Z,28.72
2018-07-03T11:25:48.266Z,28.89
2018-07-03T11:26:48.188Z,29.05
2018-07-03T11:27:48.144Z,29.15
2018-07-03T11:28:48.037Z,29.23
2018-07-03T11:29:47.962Z,29.05
2018-07-03T11:30:47.880Z,29.25
2018-07-03T11:31:47.811Z,29.14
2018-07-03T11:32:47.765Z,29.25
2018-07-03T11:33:47.705Z,28.76
2018-07-03T11:34:47.581Z,28.38
2018-07-03T11:35:47.502Z,28.38
2018-07-03T11:36:47.421Z,28.09
2018-07-03T11:37:47.430Z,28.14
2018-07-03T11:38:47.275Z,28.06
2018-07-03T11:39:47.197Z,28.18
2018-07-03T11:40:47.117Z,28.13
2018-07-03T11:41:47.042Z,28.39
2018-07-03T11:42:46.996Z,28.36
2018-07-03T11:43:46.890Z,28.40
2018-07-03T11:44:46.866Z,28.21
2018-07-03T11:45:46.735Z,28.30
2018-07-03T11:46:46.659Z,28.33
2018-07-03T11:47:46.614Z,27.78
2018-07-03T11:48:46.507Z,27.88
2018-07-03T11:49:46.429Z,28.06
2018-07-03T11:50:46.354Z,28.02
2018-07-03T11:51:46.276Z,28.42
2018-07-03T11:52:46.298Z,28.69
2018-07-03T11:53:46.156Z,28.73
2018-07-03T11:54:46.048Z,29.02
2018-07-03T11:55:45.973Z,28.94
2018-07-03T11:56:45.895Z,28.79
2018-07-03T11:57:45.820Z,28.76
2018-07-03T11:58:45.769Z,28.89
2018-07-03T11:59:45.662Z,28.70
2018-07-03T12:00:45.587Z,28.52
2018-07-03T12:01:45.566Z,28.60
2018-07-03T12:02:45.441Z,28.57
2018-07-03T12:03:45.391Z,28.60
2018-07-03T12:04:45.280Z,28.70
2018-07-03T12:05:45.203Z,28.62
2018-07-03T12:06:45.134Z,28.76
2018-07-03T12:07:45.056Z,29.02
2018-07-03T12:08:45.009Z,28.98
2018-07-03T12:09:44.900Z,28.60
2018-07-03T12:10:44.822Z,28.61
2018-07-03T12:11:44.745Z,28.74
2018-07-03T12:12:44.668Z,28.48
2018-07-03T12:13:44.715Z,28.80
2018-07-03T12:14:44.516Z,28.58
2018-07-03T12:15:44.439Z,28.87
2018-07-03T12:16:44.367Z,28.85
2018-07-03T12:17:44.288Z,29.00
2018-07-03T12:18:44.274Z,29.08
2018-07-03T12:19:44.210Z,28.98
2018-07-03T12:20:44.144Z,29.05
2018-07-03T12:21:43.979Z,29.18
2018-07-03T12:22:43.906Z,29.26
2018-07-03T12:23:43.856Z,29.27
2018-07-03T12:24:43.748Z,29.14
2018-07-03T12:25:43.672Z,29.08
2018-07-03T12:26:43.596Z,28.88
2018-07-03T12:27:43.611Z,28.91
2018-07-03T12:28:43.474Z,28.98
2018-07-03T12:29:43.369Z,28.92
2018-07-03T12:30:43.290Z,28.82
2018-07-03T12:31:43.216Z,28.82
2018-07-03T12:32:43.137Z,28.58
2018-07-03T12:33:43.097Z,28.28
2018-07-03T12:34:43.073Z,28.25
2018-07-03T12:35:42.921Z,28.13
2018-07-03T12:36:42.837Z,27.96
2018-07-03T12:37:42.759Z,27.65
2018-07-03T12:38:42.713Z,28.08
2018-07-03T12:39:42.601Z,27.99
2018-07-03T12:40:42.534Z,27.76
2018-07-03T12:41:42.543Z,27.86
2018-07-03T12:42:42.374Z,28.03
2018-07-03T12:43:42.328Z,27.91
2018-07-03T12:44:42.220Z,28.01
2018-07-03T12:45:42.146Z,27.76
2018-07-03T12:46:42.070Z,27.98
2018-07-03T12:47:41.992Z,27.98
2018-07-03T12:48:42.047Z,28.13
2018-07-03T12:49:41.866Z,28.17
2018-07-03T12:50:41.763Z,28.14
2018-07-03T12:51:41.685Z,27.76
2018-07-03T12:52:41.611Z,27.65
2018-07-03T12:53:41.569Z,27.87
2018-07-03T12:54:41.458Z,27.62
2018-07-03T12:55:41.475Z,27.62
2018-07-03T12:56:41.305Z,27.43
2018-07-03T12:57:41.234Z,27.06
2018-07-03T12:58:41.183Z,27.02